sensor_id;sensor_type;location;lat;lon;timestamp;P1;durP1;ratioP1;P2;durP2;ratioP2
11344;SDS011;5727;42.600;23.028;2022-11-20T00:00:37;2.43;;;1.10;;
11344;SDS011;5727;42.600;23.028;2022-11-20T00:03:04;3.83;;;1.03;;
11344;SDS011;5727;42.600;23.028;2022-11-20T00:05:31;3.70;;;1.30;;
11344;SDS011;5727;42.600;23.028;2022-11-20T00:07:58;3.87;;;1.30;;
11344;SDS011;5727;42.600;23.028;2022-11-20T00:10:25;3.70;;;1.40;;
11344;SDS011;5727;42.600;23.028;2022-11-20T00:12:53;6.70;;;1.40;;
11344;SDS011;5727;42.600;23.028;2022-11-20T00:15:20;2.10;;;0.80;;
11344;SDS011;5727;42.600;23.028;2022-11-20T00:17:47;2.63;;;1.03;;
11344;SDS011;5727;42.600;23.028;2022-11-20T00:20:14;4.17;;;1.27;;
11344;SDS011;5727;42.600;23.028;2022-11-20T00:22:40;3.13;;;1.37;;
11344;SDS011;5727;42.600;23.028;2022-11-20T00:25:07;2.67;;;1.20;;
11344;SDS011;5727;42.600;23.028;2022-11-20T00:27:34;3.77;;;1.60;;
11344;SDS011;5727;42.600;23.028;2022-11-20T00:30:03;3.70;;;1.43;;
11344;SDS011;5727;42.600;23.028;2022-11-20T00:32:30;1.30;;;1.20;;
11344;SDS011;5727;42.600;23.028;2022-11-20T00:34:57;5.93;;;1.30;;
11344;SDS011;5727;42.600;23.028;2022-11-20T00:37:24;5.60;;;1.20;;
11344;SDS011;5727;42.600;23.028;2022-11-20T00:39:50;4.77;;;1.17;;
11344;SDS011;5727;42.600;23.028;2022-11-20T00:42:17;4.60;;;1.20;;
11344;SDS011;5727;42.600;23.028;2022-11-20T00:44:44;2.77;;;1.70;;
11344;SDS011;5727;42.600;23.028;2022-11-20T00:47:12;3.13;;;1.57;;
11344;SDS011;5727;42.600;23.028;2022-11-20T00:49:39;2.53;;;1.50;;
11344;SDS011;5727;42.600;23.028;2022-11-20T00:52:05;3.87;;;1.60;;
11344;SDS011;5727;42.600;23.028;2022-11-20T00:54:32;2.63;;;1.17;;
11344;SDS011;5727;42.600;23.028;2022-11-20T00:56:59;1.80;;;1.17;;
11344;SDS011;5727;42.600;23.028;2022-11-20T00:59:25;6.77;;;1.63;;
11344;SDS011;5727;42.600;23.028;2022-11-20T01:01:52;3.33;;;1.27;;
11344;SDS011;5727;42.600;23.028;2022-11-20T01:04:20;3.97;;;1.43;;
11344;SDS011;5727;42.600;23.028;2022-11-20T01:06:47;4.07;;;1.70;;
11344;SDS011;5727;42.600;23.028;2022-11-20T01:09:13;5.23;;;1.20;;
11344;SDS011;5727;42.600;23.028;2022-11-20T01:11:41;3.40;;;1.33;;
11344;SDS011;5727;42.600;23.028;2022-11-20T01:14:09;5.60;;;1.20;;
11344;SDS011;5727;42.600;23.028;2022-11-20T01:16:39;2.73;;;1.30;;
11344;SDS011;5727;42.600;23.028;2022-11-20T01:19:09;2.63;;;1.50;;
11344;SDS011;5727;42.600;23.028;2022-11-20T01:21:39;2.63;;;1.17;;
11344;SDS011;5727;42.600;23.028;2022-11-20T01:24:08;3.40;;;1.10;;
11344;SDS011;5727;42.600;23.028;2022-11-20T01:26:37;4.43;;;1.67;;
11344;SDS011;5727;42.600;23.028;2022-11-20T01:29:06;3.30;;;1.00;;
11344;SDS011;5727;42.600;23.028;2022-11-20T01:31:34;3.57;;;1.60;;
11344;SDS011;5727;42.600;23.028;2022-11-20T01:34:03;4.20;;;1.30;;
11344;SDS011;5727;42.600;23.028;2022-11-20T01:36:31;4.80;;;1.20;;
11344;SDS011;5727;42.600;23.028;2022-11-20T01:39:00;4.10;;;1.13;;
11344;SDS011;5727;42.600;23.028;2022-11-20T01:41:30;6.27;;;1.27;;
11344;SDS011;5727;42.600;23.028;2022-11-20T01:44:16;4.53;;;1.20;;
11344;SDS011;5727;42.600;23.028;2022-11-20T01:46:45;5.77;;;1.37;;
11344;SDS011;5727;42.600;23.028;2022-11-20T01:49:23;2.57;;;0.90;;
11344;SDS011;5727;42.600;23.028;2022-11-20T01:51:52;2.80;;;1.20;;
11344;SDS011;5727;42.600;23.028;2022-11-20T01:54:24;2.03;;;1.30;;
11344;SDS011;5727;42.600;23.028;2022-11-20T01:56:56;2.20;;;1.00;;
11344;SDS011;5727;42.600;23.028;2022-11-20T01:59:25;5.23;;;1.43;;
11344;SDS011;5727;42.600;23.028;2022-11-20T02:01:53;1.70;;;1.00;;
11344;SDS011;5727;42.600;23.028;2022-11-20T02:04:21;5.33;;;1.53;;
11344;SDS011;5727;42.600;23.028;2022-11-20T02:06:49;2.43;;;1.20;;
11344;SDS011;5727;42.600;23.028;2022-11-20T02:09:19;3.33;;;1.70;;
11344;SDS011;5727;42.600;23.028;2022-11-20T02:11:47;2.43;;;1.30;;
11344;SDS011;5727;42.600;23.028;2022-11-20T02:14:15;1.73;;;1.00;;
11344;SDS011;5727;42.600;23.028;2022-11-20T02:16:45;2.10;;;1.00;;
11344;SDS011;5727;42.600;23.028;2022-11-20T02:19:16;2.60;;;0.97;;
11344;SDS011;5727;42.600;23.028;2022-11-20T02:21:51;3.20;;;1.33;;
11344;SDS011;5727;42.600;23.028;2022-11-20T02:24:27;4.17;;;1.10;;
11344;SDS011;5727;42.600;23.028;2022-11-20T02:26:56;3.53;;;1.13;;
11344;SDS011;5727;42.600;23.028;2022-11-20T02:29:26;4.03;;;1.10;;
11344;SDS011;5727;42.600;23.028;2022-11-20T02:31:58;2.30;;;0.93;;
11344;SDS011;5727;42.600;23.028;2022-11-20T02:34:26;3.47;;;1.10;;
11344;SDS011;5727;42.600;23.028;2022-11-20T02:36:53;1.83;;;1.17;;
11344;SDS011;5727;42.600;23.028;2022-11-20T02:39:22;1.77;;;1.00;;
11344;SDS011;5727;42.600;23.028;2022-11-20T02:41:54;1.60;;;1.03;;
11344;SDS011;5727;42.600;23.028;2022-11-20T02:44:22;1.17;;;0.80;;
11344;SDS011;5727;42.600;23.028;2022-11-20T02:46:48;3.80;;;1.40;;
11344;SDS011;5727;42.600;23.028;2022-11-20T02:49:15;2.17;;;1.30;;
11344;SDS011;5727;42.600;23.028;2022-11-20T02:51:42;3.70;;;1.20;;
11344;SDS011;5727;42.600;23.028;2022-11-20T02:54:09;2.70;;;1.10;;
11344;SDS011;5727;42.600;23.028;2022-11-20T02:56:37;4.47;;;1.30;;
11344;SDS011;5727;42.600;23.028;2022-11-20T02:59:05;2.00;;;1.07;;
11344;SDS011;5727;42.600;23.028;2022-11-20T03:01:32;2.50;;;1.47;;
11344;SDS011;5727;42.600;23.028;2022-11-20T03:03:59;3.17;;;1.23;;
11344;SDS011;5727;42.600;23.028;2022-11-20T03:06:26;3.43;;;1.30;;
11344;SDS011;5727;42.600;23.028;2022-11-20T03:08:53;3.27;;;1.10;;
11344;SDS011;5727;42.600;23.028;2022-11-20T03:11:20;4.90;;;1.20;;
11344;SDS011;5727;42.600;23.028;2022-11-20T03:13:46;2.87;;;1.10;;
11344;SDS011;5727;42.600;23.028;2022-11-20T03:16:16;3.67;;;1.03;;
11344;SDS011;5727;42.600;23.028;2022-11-20T03:18:44;4.70;;;1.20;;
11344;SDS011;5727;42.600;23.028;2022-11-20T03:21:11;3.97;;;1.50;;
11344;SDS011;5727;42.600;23.028;2022-11-20T03:23:39;2.33;;;1.07;;
11344;SDS011;5727;42.600;23.028;2022-11-20T03:26:09;3.60;;;1.10;;
11344;SDS011;5727;42.600;23.028;2022-11-20T03:28:37;2.03;;;1.30;;
11344;SDS011;5727;42.600;23.028;2022-11-20T03:31:05;2.63;;;1.20;;
11344;SDS011;5727;42.600;23.028;2022-11-20T03:33:34;6.53;;;1.40;;
11344;SDS011;5727;42.600;23.028;2022-11-20T03:36:02;3.07;;;1.03;;
11344;SDS011;5727;42.600;23.028;2022-11-20T03:38:29;3.03;;;1.40;;
11344;SDS011;5727;42.600;23.028;2022-11-20T03:40:58;2.27;;;1.00;;
11344;SDS011;5727;42.600;23.028;2022-11-20T03:43:26;3.87;;;1.07;;
11344;SDS011;5727;42.600;23.028;2022-11-20T03:45:53;3.27;;;0.93;;
11344;SDS011;5727;42.600;23.028;2022-11-20T03:48:20;1.30;;;0.70;;
11344;SDS011;5727;42.600;23.028;2022-11-20T03:50:48;2.70;;;1.30;;
11344;SDS011;5727;42.600;23.028;2022-11-20T03:53:15;2.27;;;1.43;;
11344;SDS011;5727;42.600;23.028;2022-11-20T03:55:42;2.57;;;1.00;;
11344;SDS011;5727;42.600;23.028;2022-11-20T03:58:09;3.83;;;1.30;;
11344;SDS011;5727;42.600;23.028;2022-11-20T04:00:36;1.73;;;1.23;;
11344;SDS011;5727;42.600;23.028;2022-11-20T04:03:03;3.93;;;1.80;;
11344;SDS011;5727;42.600;23.028;2022-11-20T04:05:30;2.57;;;1.40;;
11344;SDS011;5727;42.600;23.028;2022-11-20T04:08:00;3.20;;;1.40;;
11344;SDS011;5727;42.600;23.028;2022-11-20T04:10:26;3.30;;;1.20;;
11344;SDS011;5727;42.600;23.028;2022-11-20T04:12:53;3.73;;;1.10;;
11344;SDS011;5727;42.600;23.028;2022-11-20T04:15:20;3.57;;;1.20;;
11344;SDS011;5727;42.600;23.028;2022-11-20T04:17:47;2.40;;;1.17;;
11344;SDS011;5727;42.600;23.028;2022-11-20T04:20:13;1.67;;;1.10;;
11344;SDS011;5727;42.600;23.028;2022-11-20T04:22:40;2.90;;;1.30;;
11344;SDS011;5727;42.600;23.028;2022-11-20T04:25:09;2.03;;;1.30;;
11344;SDS011;5727;42.600;23.028;2022-11-20T04:27:35;4.17;;;1.50;;
11344;SDS011;5727;42.600;23.028;2022-11-20T04:30:02;5.33;;;1.10;;
11344;SDS011;5727;42.600;23.028;2022-11-20T04:32:29;2.23;;;1.20;;
11344;SDS011;5727;42.600;23.028;2022-11-20T04:34:56;2.40;;;1.10;;
11344;SDS011;5727;42.600;23.028;2022-11-20T04:37:23;2.50;;;0.97;;
11344;SDS011;5727;42.600;23.028;2022-11-20T04:39:49;2.50;;;1.17;;
11344;SDS011;5727;42.600;23.028;2022-11-20T04:42:17;4.30;;;1.23;;
11344;SDS011;5727;42.600;23.028;2022-11-20T04:44:57;1.70;;;1.03;;
11344;SDS011;5727;42.600;23.028;2022-11-20T04:47:24;3.33;;;1.27;;
11344;SDS011;5727;42.600;23.028;2022-11-20T04:49:51;1.83;;;1.50;;
11344;SDS011;5727;42.600;23.028;2022-11-20T04:52:17;2.73;;;1.10;;
11344;SDS011;5727;42.600;23.028;2022-11-20T04:54:44;1.67;;;1.30;;
11344;SDS011;5727;42.600;23.028;2022-11-20T04:57:12;3.70;;;1.47;;
11344;SDS011;5727;42.600;23.028;2022-11-20T04:59:41;2.63;;;1.30;;
11344;SDS011;5727;42.600;23.028;2022-11-20T05:02:08;3.03;;;1.30;;
11344;SDS011;5727;42.600;23.028;2022-11-20T05:04:35;4.30;;;1.50;;
11344;SDS011;5727;42.600;23.028;2022-11-20T05:07:01;2.27;;;1.10;;
11344;SDS011;5727;42.600;23.028;2022-11-20T05:09:29;3.63;;;1.20;;
11344;SDS011;5727;42.600;23.028;2022-11-20T05:11:56;2.70;;;1.40;;
11344;SDS011;5727;42.600;23.028;2022-11-20T05:14:22;1.93;;;0.90;;
11344;SDS011;5727;42.600;23.028;2022-11-20T05:16:50;3.43;;;1.43;;
11344;SDS011;5727;42.600;23.028;2022-11-20T05:19:17;3.67;;;1.10;;
11344;SDS011;5727;42.600;23.028;2022-11-20T05:21:44;2.83;;;1.20;;
11344;SDS011;5727;42.600;23.028;2022-11-20T05:24:10;3.27;;;1.37;;
11344;SDS011;5727;42.600;23.028;2022-11-20T05:26:37;2.83;;;1.30;;
11344;SDS011;5727;42.600;23.028;2022-11-20T05:29:04;1.93;;;1.17;;
11344;SDS011;5727;42.600;23.028;2022-11-20T05:31:31;3.27;;;1.40;;
11344;SDS011;5727;42.600;23.028;2022-11-20T05:33:59;3.37;;;1.10;;
11344;SDS011;5727;42.600;23.028;2022-11-20T05:36:25;2.87;;;1.30;;
11344;SDS011;5727;42.600;23.028;2022-11-20T05:38:52;3.73;;;1.13;;
11344;SDS011;5727;42.600;23.028;2022-11-20T05:41:19;3.97;;;1.80;;
11344;SDS011;5727;42.600;23.028;2022-11-20T05:43:47;2.50;;;1.50;;
11344;SDS011;5727;42.600;23.028;2022-11-20T05:46:15;3.10;;;1.40;;
11344;SDS011;5727;42.600;23.028;2022-11-20T05:48:43;3.37;;;1.10;;
11344;SDS011;5727;42.600;23.028;2022-11-20T05:51:13;3.00;;;1.27;;
11344;SDS011;5727;42.600;23.028;2022-11-20T05:53:41;1.37;;;1.00;;
11344;SDS011;5727;42.600;23.028;2022-11-20T05:56:09;3.40;;;1.20;;
11344;SDS011;5727;42.600;23.028;2022-11-20T05:58:37;3.50;;;1.30;;
11344;SDS011;5727;42.600;23.028;2022-11-20T06:01:05;5.17;;;1.80;;
11344;SDS011;5727;42.600;23.028;2022-11-20T06:03:33;2.47;;;1.03;;
11344;SDS011;5727;42.600;23.028;2022-11-20T06:06:00;2.30;;;1.40;;
11344;SDS011;5727;42.600;23.028;2022-11-20T06:08:29;7.33;;;1.50;;
11344;SDS011;5727;42.600;23.028;2022-11-20T06:10:56;2.50;;;1.07;;
11344;SDS011;5727;42.600;23.028;2022-11-20T06:13:23;4.60;;;1.37;;
11344;SDS011;5727;42.600;23.028;2022-11-20T06:15:49;4.20;;;1.17;;
11344;SDS011;5727;42.600;23.028;2022-11-20T06:18:17;5.30;;;1.20;;
11344;SDS011;5727;42.600;23.028;2022-11-20T06:20:44;1.50;;;1.27;;
11344;SDS011;5727;42.600;23.028;2022-11-20T06:23:12;2.80;;;1.23;;
11344;SDS011;5727;42.600;23.028;2022-11-20T06:25:40;2.70;;;1.03;;
11344;SDS011;5727;42.600;23.028;2022-11-20T06:28:08;4.93;;;1.30;;
11344;SDS011;5727;42.600;23.028;2022-11-20T06:30:35;4.43;;;1.30;;
11344;SDS011;5727;42.600;23.028;2022-11-20T06:33:02;2.17;;;1.10;;
11344;SDS011;5727;42.600;23.028;2022-11-20T06:35:29;4.30;;;1.30;;
11344;SDS011;5727;42.600;23.028;2022-11-20T06:37:55;2.97;;;1.30;;
11344;SDS011;5727;42.600;23.028;2022-11-20T06:40:22;2.30;;;1.20;;
11344;SDS011;5727;42.600;23.028;2022-11-20T06:42:50;1.87;;;1.40;;
11344;SDS011;5727;42.600;23.028;2022-11-20T06:45:17;3.43;;;1.50;;
11344;SDS011;5727;42.600;23.028;2022-11-20T06:47:43;4.73;;;1.63;;
11344;SDS011;5727;42.600;23.028;2022-11-20T06:50:10;2.50;;;1.40;;
11344;SDS011;5727;42.600;23.028;2022-11-20T06:52:37;3.40;;;1.60;;
11344;SDS011;5727;42.600;23.028;2022-11-20T06:55:04;4.03;;;1.27;;
11344;SDS011;5727;42.600;23.028;2022-11-20T06:57:31;5.23;;;1.53;;
11344;SDS011;5727;42.600;23.028;2022-11-20T06:59:59;4.63;;;1.30;;
11344;SDS011;5727;42.600;23.028;2022-11-20T07:02:26;4.03;;;1.50;;
11344;SDS011;5727;42.600;23.028;2022-11-20T07:04:53;2.17;;;1.27;;
11344;SDS011;5727;42.600;23.028;2022-11-20T07:07:20;2.50;;;1.23;;
11344;SDS011;5727;42.600;23.028;2022-11-20T07:09:46;4.10;;;1.70;;
11344;SDS011;5727;42.600;23.028;2022-11-20T07:12:13;5.57;;;2.07;;
11344;SDS011;5727;42.600;23.028;2022-11-20T07:14:40;3.03;;;1.77;;
11344;SDS011;5727;42.600;23.028;2022-11-20T07:17:08;4.93;;;1.50;;
11344;SDS011;5727;42.600;23.028;2022-11-20T07:19:35;4.13;;;1.67;;
11344;SDS011;5727;42.600;23.028;2022-11-20T07:22:01;3.67;;;1.30;;
11344;SDS011;5727;42.600;23.028;2022-11-20T07:24:28;2.63;;;1.50;;
11344;SDS011;5727;42.600;23.028;2022-11-20T07:26:55;6.77;;;1.97;;
11344;SDS011;5727;42.600;23.028;2022-11-20T07:29:21;5.20;;;2.23;;
11344;SDS011;5727;42.600;23.028;2022-11-20T07:31:48;1.80;;;1.23;;
11344;SDS011;5727;42.600;23.028;2022-11-20T07:34:16;2.30;;;1.33;;
11344;SDS011;5727;42.600;23.028;2022-11-20T07:36:43;4.83;;;1.70;;
11344;SDS011;5727;42.600;23.028;2022-11-20T07:39:10;4.97;;;1.50;;
11344;SDS011;5727;42.600;23.028;2022-11-20T07:41:36;3.40;;;1.60;;
11344;SDS011;5727;42.600;23.028;2022-11-20T07:44:03;4.10;;;1.93;;
11344;SDS011;5727;42.600;23.028;2022-11-20T07:46:30;3.00;;;1.43;;
11344;SDS011;5727;42.600;23.028;2022-11-20T07:48:57;2.40;;;1.50;;
11344;SDS011;5727;42.600;23.028;2022-11-20T07:51:25;3.77;;;1.90;;
11344;SDS011;5727;42.600;23.028;2022-11-20T07:53:52;3.63;;;1.97;;
11344;SDS011;5727;42.600;23.028;2022-11-20T07:56:19;4.40;;;1.70;;
11344;SDS011;5727;42.600;23.028;2022-11-20T07:58:45;6.13;;;1.83;;
11344;SDS011;5727;42.600;23.028;2022-11-20T08:01:12;4.73;;;2.13;;
11344;SDS011;5727;42.600;23.028;2022-11-20T08:03:39;5.20;;;1.70;;
11344;SDS011;5727;42.600;23.028;2022-11-20T08:06:06;7.07;;;1.80;;
11344;SDS011;5727;42.600;23.028;2022-11-20T08:08:35;4.93;;;1.83;;
11344;SDS011;5727;42.600;23.028;2022-11-20T08:11:01;6.33;;;2.60;;
11344;SDS011;5727;42.600;23.028;2022-11-20T08:13:45;6.53;;;1.50;;
11344;SDS011;5727;42.600;23.028;2022-11-20T08:16:32;4.40;;;1.80;;
11344;SDS011;5727;42.600;23.028;2022-11-20T08:18:59;4.97;;;2.33;;
11344;SDS011;5727;42.600;23.028;2022-11-20T08:21:26;3.20;;;1.77;;
11344;SDS011;5727;42.600;23.028;2022-11-20T08:23:54;4.23;;;2.20;;
11344;SDS011;5727;42.600;23.028;2022-11-20T08:26:20;7.00;;;2.13;;
11344;SDS011;5727;42.600;23.028;2022-11-20T08:28:47;3.47;;;1.70;;
11344;SDS011;5727;42.600;23.028;2022-11-20T08:31:14;3.77;;;1.80;;
11344;SDS011;5727;42.600;23.028;2022-11-20T08:33:42;4.43;;;2.07;;
11344;SDS011;5727;42.600;23.028;2022-11-20T08:36:09;4.70;;;2.47;;
11344;SDS011;5727;42.600;23.028;2022-11-20T08:38:36;4.43;;;2.17;;
11344;SDS011;5727;42.600;23.028;2022-11-20T08:41:04;4.67;;;2.30;;
11344;SDS011;5727;42.600;23.028;2022-11-20T08:43:51;3.23;;;1.70;;
11344;SDS011;5727;42.600;23.028;2022-11-20T08:46:18;5.27;;;1.67;;
11344;SDS011;5727;42.600;23.028;2022-11-20T08:48:45;3.73;;;2.23;;
11344;SDS011;5727;42.600;23.028;2022-11-20T08:51:12;3.97;;;1.50;;
11344;SDS011;5727;42.600;23.028;2022-11-20T08:53:39;4.20;;;1.17;;
11344;SDS011;5727;42.600;23.028;2022-11-20T08:56:08;1.17;;;0.90;;
11344;SDS011;5727;42.600;23.028;2022-11-20T08:58:36;2.93;;;1.10;;
11344;SDS011;5727;42.600;23.028;2022-11-20T09:01:03;2.77;;;1.80;;
11344;SDS011;5727;42.600;23.028;2022-11-20T09:03:30;1.53;;;1.00;;
11344;SDS011;5727;42.600;23.028;2022-11-20T09:05:57;4.47;;;1.93;;
11344;SDS011;5727;42.600;23.028;2022-11-20T09:08:25;4.23;;;2.40;;
11344;SDS011;5727;42.600;23.028;2022-11-20T09:10:52;5.97;;;2.60;;
11344;SDS011;5727;42.600;23.028;2022-11-20T09:13:20;5.37;;;1.70;;
11344;SDS011;5727;42.600;23.028;2022-11-20T09:15:52;5.40;;;3.20;;
11344;SDS011;5727;42.600;23.028;2022-11-20T09:18:19;3.97;;;1.50;;
11344;SDS011;5727;42.600;23.028;2022-11-20T09:20:46;3.87;;;1.77;;
11344;SDS011;5727;42.600;23.028;2022-11-20T09:23:13;4.70;;;2.20;;
11344;SDS011;5727;42.600;23.028;2022-11-20T09:25:39;12.80;;;5.03;;
11344;SDS011;5727;42.600;23.028;2022-11-20T09:28:06;6.20;;;3.13;;
11344;SDS011;5727;42.600;23.028;2022-11-20T09:30:34;4.17;;;1.50;;
11344;SDS011;5727;42.600;23.028;2022-11-20T09:33:01;6.37;;;2.53;;
11344;SDS011;5727;42.600;23.028;2022-11-20T09:35:30;2.97;;;1.60;;
11344;SDS011;5727;42.600;23.028;2022-11-20T09:38:03;5.97;;;1.90;;
11344;SDS011;5727;42.600;23.028;2022-11-20T09:40:32;6.37;;;2.00;;
11344;SDS011;5727;42.600;23.028;2022-11-20T09:43:06;4.43;;;1.70;;
11344;SDS011;5727;42.600;23.028;2022-11-20T09:45:50;4.23;;;1.70;;
11344;SDS011;5727;42.600;23.028;2022-11-20T09:48:32;4.40;;;1.90;;
11344;SDS011;5727;42.600;23.028;2022-11-20T09:51:08;8.57;;;2.43;;
11344;SDS011;5727;42.600;23.028;2022-11-20T09:53:46;4.67;;;1.80;;
11344;SDS011;5727;42.600;23.028;2022-11-20T09:56:28;3.87;;;1.83;;
11344;SDS011;5727;42.600;23.028;2022-11-20T09:58:57;4.53;;;1.27;;
11344;SDS011;5727;42.600;23.028;2022-11-20T10:01:31;4.27;;;1.90;;
11344;SDS011;5727;42.600;23.028;2022-11-20T10:04:01;4.17;;;1.27;;
11344;SDS011;5727;42.600;23.028;2022-11-20T10:06:31;6.73;;;1.80;;
11344;SDS011;5727;42.600;23.028;2022-11-20T10:09:01;5.60;;;2.13;;
11344;SDS011;5727;42.600;23.028;2022-11-20T10:11:46;4.73;;;1.50;;
11344;SDS011;5727;42.600;23.028;2022-11-20T10:14:23;4.70;;;1.50;;
11344;SDS011;5727;42.600;23.028;2022-11-20T10:17:00;7.13;;;2.03;;
11344;SDS011;5727;42.600;23.028;2022-11-20T10:19:39;5.43;;;2.00;;
11344;SDS011;5727;42.600;23.028;2022-11-20T10:22:17;5.97;;;2.00;;
11344;SDS011;5727;42.600;23.028;2022-11-20T10:24:56;8.23;;;2.13;;
11344;SDS011;5727;42.600;23.028;2022-11-20T10:27:37;4.60;;;2.17;;
11344;SDS011;5727;42.600;23.028;2022-11-20T10:30:13;3.67;;;1.60;;
11344;SDS011;5727;42.600;23.028;2022-11-20T10:32:43;3.37;;;1.10;;
11344;SDS011;5727;42.600;23.028;2022-11-20T10:35:19;2.97;;;0.90;;
11344;SDS011;5727;42.600;23.028;2022-11-20T10:37:49;3.03;;;1.07;;
11344;SDS011;5727;42.600;23.028;2022-11-20T10:40:21;2.53;;;1.63;;
11344;SDS011;5727;42.600;23.028;2022-11-20T10:42:53;2.47;;;1.30;;
11344;SDS011;5727;42.600;23.028;2022-11-20T10:45:30;6.07;;;2.10;;
11344;SDS011;5727;42.600;23.028;2022-11-20T10:48:10;5.23;;;1.90;;
11344;SDS011;5727;42.600;23.028;2022-11-20T10:50:44;2.67;;;1.50;;
11344;SDS011;5727;42.600;23.028;2022-11-20T10:56:20;5.07;;;1.60;;
11344;SDS011;5727;42.600;23.028;2022-11-20T10:58:54;3.10;;;2.50;;
11344;SDS011;5727;42.600;23.028;2022-11-20T11:01:43;3.93;;;2.97;;
11344;SDS011;5727;42.600;23.028;2022-11-20T11:04:17;9.63;;;6.63;;
11344;SDS011;5727;42.600;23.028;2022-11-20T11:06:55;6.33;;;4.03;;
11344;SDS011;5727;42.600;23.028;2022-11-20T11:09:31;4.57;;;3.40;;
11344;SDS011;5727;42.600;23.028;2022-11-20T11:12:00;4.70;;;2.40;;
11344;SDS011;5727;42.600;23.028;2022-11-20T11:14:27;3.77;;;2.63;;
11344;SDS011;5727;42.600;23.028;2022-11-20T11:16:54;2.90;;;2.40;;
11344;SDS011;5727;42.600;23.028;2022-11-20T11:19:23;3.07;;;2.00;;
11344;SDS011;5727;42.600;23.028;2022-11-20T11:21:51;2.67;;;1.63;;
11344;SDS011;5727;42.600;23.028;2022-11-20T11:24:20;1.90;;;1.50;;
11344;SDS011;5727;42.600;23.028;2022-11-20T11:26:55;2.23;;;1.63;;
11344;SDS011;5727;42.600;23.028;2022-11-20T11:29:24;2.50;;;1.50;;
11344;SDS011;5727;42.600;23.028;2022-11-20T11:32:02;3.23;;;2.10;;
11344;SDS011;5727;42.600;23.028;2022-11-20T11:34:33;4.47;;;2.70;;
11344;SDS011;5727;42.600;23.028;2022-11-20T11:37:00;2.27;;;1.90;;
11344;SDS011;5727;42.600;23.028;2022-11-20T11:39:29;2.57;;;1.63;;
11344;SDS011;5727;42.600;23.028;2022-11-20T11:41:59;4.80;;;1.83;;
11344;SDS011;5727;42.600;23.028;2022-11-20T11:44:27;4.00;;;1.47;;
11344;SDS011;5727;42.600;23.028;2022-11-20T11:47:19;5.33;;;2.20;;
11344;SDS011;5727;42.600;23.028;2022-11-20T11:49:50;3.43;;;2.47;;
11344;SDS011;5727;42.600;23.028;2022-11-20T11:52:27;5.37;;;1.90;;
11344;SDS011;5727;42.600;23.028;2022-11-20T11:54:57;3.30;;;1.70;;
11344;SDS011;5727;42.600;23.028;2022-11-20T11:57:28;2.50;;;1.50;;
11344;SDS011;5727;42.600;23.028;2022-11-20T12:00:05;2.23;;;1.07;;
11344;SDS011;5727;42.600;23.028;2022-11-20T12:02:36;1.90;;;1.27;;
11344;SDS011;5727;42.600;23.028;2022-11-20T12:05:10;4.37;;;1.77;;
11344;SDS011;5727;42.600;23.028;2022-11-20T12:07:45;5.67;;;2.00;;
11344;SDS011;5727;42.600;23.028;2022-11-20T12:10:17;4.43;;;2.80;;
11344;SDS011;5727;42.600;23.028;2022-11-20T12:12:49;8.17;;;4.10;;
11344;SDS011;5727;42.600;23.028;2022-11-20T12:15:24;5.17;;;2.63;;
11344;SDS011;5727;42.600;23.028;2022-11-20T12:17:54;2.90;;;1.83;;
11344;SDS011;5727;42.600;23.028;2022-11-20T12:20:24;3.53;;;1.90;;
11344;SDS011;5727;42.600;23.028;2022-11-20T12:22:56;2.83;;;1.73;;
11344;SDS011;5727;42.600;23.028;2022-11-20T12:25:34;3.00;;;1.90;;
11344;SDS011;5727;42.600;23.028;2022-11-20T12:31:21;3.53;;;2.00;;
11344;SDS011;5727;42.600;23.028;2022-11-20T12:34:04;4.17;;;2.67;;
11344;SDS011;5727;42.600;23.028;2022-11-20T12:36:47;4.53;;;1.90;;
11344;SDS011;5727;42.600;23.028;2022-11-20T12:39:33;3.03;;;1.40;;
11344;SDS011;5727;42.600;23.028;2022-11-20T12:45:31;2.40;;;1.80;;
11344;SDS011;5727;42.600;23.028;2022-11-20T12:48:33;3.53;;;1.70;;
11344;SDS011;5727;42.600;23.028;2022-11-20T12:51:32;3.90;;;1.97;;
11344;SDS011;5727;42.600;23.028;2022-11-20T12:57:03;4.73;;;2.53;;
11344;SDS011;5727;42.600;23.028;2022-11-20T12:59:48;4.53;;;2.80;;
11344;SDS011;5727;42.600;23.028;2022-11-20T13:02:33;9.97;;;3.37;;
11344;SDS011;5727;42.600;23.028;2022-11-20T13:05:18;5.33;;;3.13;;
11344;SDS011;5727;42.600;23.028;2022-11-20T13:07:48;9.33;;;2.83;;
11344;SDS011;5727;42.600;23.028;2022-11-20T13:10:20;7.53;;;3.03;;
11344;SDS011;5727;42.600;23.028;2022-11-20T13:12:54;16.83;;;4.57;;
11344;SDS011;5727;42.600;23.028;2022-11-20T13:15:32;20.73;;;4.97;;
11344;SDS011;5727;42.600;23.028;2022-11-20T13:18:10;11.60;;;4.83;;
11344;SDS011;5727;42.600;23.028;2022-11-20T13:20:41;13.37;;;4.90;;
11344;SDS011;5727;42.600;23.028;2022-11-20T13:23:08;10.23;;;4.67;;
11344;SDS011;5727;42.600;23.028;2022-11-20T13:25:37;10.70;;;5.73;;
11344;SDS011;5727;42.600;23.028;2022-11-20T13:28:25;15.83;;;5.80;;
11344;SDS011;5727;42.600;23.028;2022-11-20T13:30:54;13.43;;;5.80;;
11344;SDS011;5727;42.600;23.028;2022-11-20T13:33:23;11.47;;;4.43;;
11344;SDS011;5727;42.600;23.028;2022-11-20T13:35:57;8.20;;;3.90;;
11344;SDS011;5727;42.600;23.028;2022-11-20T13:38:25;11.23;;;3.80;;
11344;SDS011;5727;42.600;23.028;2022-11-20T13:40:54;10.03;;;3.57;;
11344;SDS011;5727;42.600;23.028;2022-11-20T13:43:26;11.07;;;4.13;;
11344;SDS011;5727;42.600;23.028;2022-11-20T13:45:56;9.10;;;3.63;;
11344;SDS011;5727;42.600;23.028;2022-11-20T13:48:25;10.13;;;4.07;;
11344;SDS011;5727;42.600;23.028;2022-11-20T13:51:04;9.53;;;3.23;;
11344;SDS011;5727;42.600;23.028;2022-11-20T13:53:44;9.83;;;3.63;;
11344;SDS011;5727;42.600;23.028;2022-11-20T13:56:30;10.50;;;3.40;;
11344;SDS011;5727;42.600;23.028;2022-11-20T13:59:08;16.53;;;3.87;;
11344;SDS011;5727;42.600;23.028;2022-11-20T14:01:44;12.47;;;3.90;;
11344;SDS011;5727;42.600;23.028;2022-11-20T14:04:13;7.50;;;3.13;;
11344;SDS011;5727;42.600;23.028;2022-11-20T14:06:44;7.27;;;3.03;;
11344;SDS011;5727;42.600;23.028;2022-11-20T14:09:13;11.13;;;3.83;;
11344;SDS011;5727;42.600;23.028;2022-11-20T14:11:53;11.10;;;3.47;;
11344;SDS011;5727;42.600;23.028;2022-11-20T14:14:21;11.17;;;3.37;;
11344;SDS011;5727;42.600;23.028;2022-11-20T14:16:49;9.37;;;3.50;;
11344;SDS011;5727;42.600;23.028;2022-11-20T14:19:21;11.10;;;3.93;;
11344;SDS011;5727;42.600;23.028;2022-11-20T14:21:53;8.17;;;3.50;;
11344;SDS011;5727;42.600;23.028;2022-11-20T14:24:32;10.77;;;4.77;;
11344;SDS011;5727;42.600;23.028;2022-11-20T14:27:00;9.37;;;5.23;;
11344;SDS011;5727;42.600;23.028;2022-11-20T14:29:28;16.30;;;6.83;;
11344;SDS011;5727;42.600;23.028;2022-11-20T14:31:59;21.27;;;6.43;;
11344;SDS011;5727;42.600;23.028;2022-11-20T14:34:27;17.23;;;10.50;;
11344;SDS011;5727;42.600;23.028;2022-11-20T14:36:57;9.87;;;4.70;;
11344;SDS011;5727;42.600;23.028;2022-11-20T14:39:26;9.10;;;4.57;;
11344;SDS011;5727;42.600;23.028;2022-11-20T14:41:57;11.73;;;4.00;;
11344;SDS011;5727;42.600;23.028;2022-11-20T14:44:26;12.27;;;3.50;;
11344;SDS011;5727;42.600;23.028;2022-11-20T14:46:55;10.50;;;2.63;;
11344;SDS011;5727;42.600;23.028;2022-11-20T14:49:24;8.37;;;3.53;;
11344;SDS011;5727;42.600;23.028;2022-11-20T14:51:58;8.53;;;2.97;;
11344;SDS011;5727;42.600;23.028;2022-11-20T14:54:25;5.90;;;2.90;;
11344;SDS011;5727;42.600;23.028;2022-11-20T14:56:54;10.60;;;3.60;;
11344;SDS011;5727;42.600;23.028;2022-11-20T14:59:22;6.00;;;3.23;;
11344;SDS011;5727;42.600;23.028;2022-11-20T15:01:55;7.97;;;3.33;;
11344;SDS011;5727;42.600;23.028;2022-11-20T15:04:24;8.50;;;3.37;;
11344;SDS011;5727;42.600;23.028;2022-11-20T15:06:51;8.70;;;3.13;;
11344;SDS011;5727;42.600;23.028;2022-11-20T15:09:20;9.80;;;3.80;;
11344;SDS011;5727;42.600;23.028;2022-11-20T15:11:52;11.83;;;3.97;;
11344;SDS011;5727;42.600;23.028;2022-11-20T15:14:21;3.07;;;1.70;;